Time;durP1;ratioP1;P1;durP2;ratioP2;P2;SDS_P1;SDS_P2;PMS_P1;PMS_P2;Temp;Humidity;BMP_temperature;BMP_pressure;BME280_temperature;BME280_humidity;BME280_pressure;Samples;Min_cycle;Max_cycle;Signal;HPM_P1;HPM_P2
2022/08/16 00:00:12;;;;;;;1.70;0.98;;;;;;;22.89;58.10;98715.22;5093430;28;20052;-70
2022/08/16 00:02:50;;;;;;;1.20;1.10;;;;;;;22.77;58.81;98716.84;5098937;28;20097;-70
2022/08/16 00:05:19;;;;;;;0.73;0.73;;;;;;;22.73;58.77;98714.56;5113893;28;20135;-68
2022/08/16 00:07:50;;;;;;;0.90;0.80;;;;;;;22.70;58.79;98710.38;5113491;28;20071;-69
2022/08/16 00:10:26;;;;;;;0.68;0.68;;;;;;;22.66;58.85;98704.56;5112561;28;20040;-69
2022/08/16 00:12:56;;;;;;;2.38;1.75;;;;;;;22.64;59.01;98706.44;5113662;28;20044;-69
2022/08/16 00:15:28;;;;;;;2.38;1.48;;;;;;;22.62;59.19;98708.31;5113895;28;20084;-69
2022/08/16 00:18:18;;;;;;;0.50;0.50;;;;;;;22.59;59.33;98707.63;5116365;28;20057;-69
2022/08/16 00:20:55;;;;;;;1.10;1.00;;;;;;;22.57;59.25;98710.34;5117408;28;20066;-69
2022/08/16 00:23:25;;;;;;;1.77;1.50;;;;;;;22.55;59.58;98707.00;5116996;28;20108;-69
2022/08/16 00:26:08;;;;;;;1.05;0.85;;;;;;;22.52;59.64;98709.81;5117613;28;20046;-69
2022/08/16 00:28:57;;;;;;;1.20;1.05;;;;;;;22.41;59.97;98709.63;5116315;28;20046;-69
2022/08/16 00:31:26;;;;;;;0.80;0.80;;;;;;;22.36;60.20;98711.69;5117226;28;20035;-69
2022/08/16 00:34:15;;;;;;;0.60;0.60;;;;;;;22.33;60.44;98701.50;5115039;28;20360;-69
2022/08/16 00:36:46;;;;;;;0.82;0.82;;;;;;;22.29;60.55;98705.22;5097041;28;20052;-69
2022/08/16 00:39:18;;;;;;;3.22;1.80;;;;;;;22.24;60.83;98702.09;5097294;28;20044;-69
2022/08/16 00:41:50;;;;;;;1.80;1.48;;;;;;;22.24;60.98;98696.91;5097458;28;20130;-69
2022/08/16 00:44:21;;;;;;;1.23;1.13;;;;;;;22.24;60.80;98707.31;5096039;28;20043;-69
2022/08/16 00:47:04;;;;;;;0.60;0.60;;;;;;;22.23;60.86;98708.22;5096863;28;20075;-69
2022/08/16 00:49:35;;;;;;;0.82;0.80;;;;;;;22.23;60.96;98716.03;5095595;28;20039;-69
2022/08/16 00:52:12;;;;;;;0.65;0.65;;;;;;;22.20;60.77;98713.59;5105372;28;20040;-69
2022/08/16 00:55:00;;;;;;;1.23;1.13;;;;;;;22.17;60.65;98711.19;5117288;28;20042;-69
2022/08/16 00:57:29;;;;;;;1.10;1.00;;;;;;;22.16;60.52;98709.53;5115829;28;20067;-69
2022/08/16 01:00:18;;;;;;;3.15;1.17;;;;;;;22.10;61.07;98707.31;5116685;28;20048;-69
2022/08/16 01:02:51;;;;;;;1.13;1.00;;;;;;;22.04;61.32;98725.91;5114091;28;20436;-69
2022/08/16 01:05:21;;;;;;;0.85;0.85;;;;;;;21.99;61.21;98715.81;5109573;28;20048;-69
2022/08/16 01:07:51;;;;;;;1.17;1.08;;;;;;;21.94;61.39;98728.25;5116652;28;20458;-69
2022/08/16 01:10:24;;;;;;;0.77;0.70;;;;;;;21.89;61.46;98716.47;5097850;28;20127;-69
2022/08/16 01:13:00;;;;;;;1.30;1.20;;;;;;;21.83;61.50;98716.81;5096076;28;20048;-69
2022/08/16 01:15:32;;;;;;;0.70;0.57;;;;;;;21.87;61.75;98724.38;5096686;28;20048;-69
2022/08/16 01:18:03;;;;;;;0.60;0.60;;;;;;;21.88;62.14;98735.59;5096044;28;20044;-69
2022/08/16 01:20:38;;;;;;;0.88;0.85;;;;;;;21.84;62.16;98739.25;5095881;28;20062;-69
2022/08/16 01:23:17;;;;;;;8.23;1.50;;;;;;;21.80;62.01;98737.78;5094710;28;20044;-69
2022/08/16 01:25:52;;;;;;;0.85;0.85;;;;;;;21.74;62.26;98735.59;5099556;28;20039;-69
2022/08/16 01:28:43;;;;;;;1.50;1.33;;;;;;;21.72;62.48;98732.22;5115247;28;20044;-69
2022/08/16 01:31:14;;;;;;;3.05;1.75;;;;;;;21.72;62.37;98735.66;5115134;28;20495;-69
2022/08/16 01:33:43;;;;;;;1.08;1.00;;;;;;;21.73;62.68;98731.31;5114882;28;20130;-69
2022/08/16 01:36:18;;;;;;;3.13;1.42;;;;;;;21.71;62.95;98728.81;5115154;28;20127;-69
2022/08/16 01:38:54;;;;;;;1.35;1.25;;;;;;;21.69;63.07;98735.84;5115899;28;20051;-69
2022/08/16 01:41:30;;;;;;;2.83;2.15;;;;;;;21.70;62.77;98734.06;5115185;28;20366;-69
2022/08/16 01:44:02;;;;;;;1.10;1.00;;;;;;;21.70;63.14;98731.47;5113796;28;20043;-69
2022/08/16 01:46:36;;;;;;;3.03;1.88;;;;;;;21.65;62.98;98738.72;5115714;27;20481;-69
2022/08/16 01:49:22;;;;;;;1.05;1.02;;;;;;;21.61;63.08;98745.03;5115164;28;20393;-69
2022/08/16 01:51:56;;;;;;;0.95;0.75;;;;;;;21.57;63.12;98752.16;5114738;28;20379;-69
2022/08/16 01:54:51;;;;;;;1.27;1.17;;;;;;;21.56;63.10;98754.84;5109302;27;20123;-69
2022/08/16 01:57:22;;;;;;;1.23;0.95;;;;;;;21.56;63.27;98749.66;5114110;28;20299;-70
2022/08/16 01:59:52;;;;;;;0.85;0.80;;;;;;;21.53;63.12;98742.88;5109086;28;20048;-69
2022/08/16 02:02:23;;;;;;;0.52;0.52;;;;;;;21.55;63.49;98745.38;5107208;28;20366;-69
2022/08/16 02:04:56;;;;;;;1.05;0.93;;;;;;;21.51;63.50;98746.50;5104602;28;20492;-71
2022/08/16 02:07:26;;;;;;;0.80;0.80;;;;;;;21.50;63.46;98742.25;5093805;28;20048;-69
2022/08/16 02:09:58;;;;;;;1.70;0.73;;;;;;;21.49;63.79;98743.16;5093664;28;20062;-69
2022/08/16 02:12:41;;;;;;;1.48;1.05;;;;;;;21.48;63.52;98746.69;5093746;28;20055;-69
2022/08/16 02:15:31;;;;;;;0.98;0.93;;;;;;;21.44;63.76;98745.19;5076895;28;20414;-69
2022/08/16 02:18:08;;;;;;;0.98;0.93;;;;;;;21.38;63.63;98744.63;5111250;28;20428;-69
2022/08/16 02:20:43;;;;;;;0.80;0.80;;;;;;;21.38;63.32;98747.25;5114092;28;20043;-69
2022/08/16 02:23:13;;;;;;;0.52;0.52;;;;;;;21.36;63.32;98750.84;5114473;28;20474;-69
2022/08/16 02:25:46;;;;;;;1.08;0.80;;;;;;;21.32;63.30;98737.22;5113608;28;20048;-69
2022/08/16 02:28:23;;;;;;;1.35;1.23;;;;;;;21.31;63.52;98740.75;5114155;28;20040;-69
2022/08/16 02:30:52;;;;;;;1.13;1.02;;;;;;;21.30;63.55;98749.47;5096989;28;20055;-68
2022/08/16 02:33:21;;;;;;;;;;;;;;;21.30;63.48;98744.28;5112306;28;20516;-69
2022/08/16 02:36:15;;;;;;;0.70;0.70;;;;;;;21.27;63.62;98749.66;5093194;28;19981;-69
2022/08/16 02:39:05;;;;;;;0.90;0.90;;;;;;;21.19;63.97;98751.84;5094185;28;20051;-69
2022/08/16 02:41:36;;;;;;;3.08;0.98;;;;;;;21.10;64.29;98752.38;5093132;28;20059;-69
2022/08/16 02:44:12;;;;;;;0.85;0.85;;;;;;;21.02;64.83;98751.94;5093127;28;20079;-69
2022/08/16 02:46:48;;;;;;;0.70;0.70;;;;;;;20.85;64.92;98744.31;5093349;28;20040;-69
2022/08/16 02:49:19;;;;;;;1.48;1.33;;;;;;;20.76;64.98;98747.44;5093653;28;20093;-69
2022/08/16 02:51:49;;;;;;;0.60;0.60;;;;;;;20.68;65.59;98754.81;5106790;28;20097;-69
2022/08/16 02:54:18;;;;;;;1.45;1.27;;;;;;;20.58;66.04;98758.84;5113659;28;20067;-69
2022/08/16 02:56:52;;;;;;;0.75;0.75;;;;;;;20.45;66.42;98757.84;5112705;28;20116;-69
2022/08/16 02:59:22;;;;;;;1.00;0.90;;;;;;;20.29;66.84;98765.66;5114739;28;20126;-69
2022/08/16 03:01:51;;;;;;;1.13;1.02;;;;;;;20.23;67.26;98762.56;5112991;28;20040;-69
2022/08/16 03:04:28;;;;;;;0.98;0.95;;;;;;;20.27;67.24;98761.47;5113004;28;20059;-69
2022/08/16 03:07:18;;;;;;;0.70;0.70;;;;;;;20.26;67.36;98762.38;5111761;28;20059;-69
2022/08/16 03:09:56;;;;;;;0.60;0.60;;;;;;;20.24;67.50;98764.22;5092775;28;20134;-69
2022/08/16 03:12:30;;;;;;;1.45;1.27;;;;;;;20.32;67.38;98756.88;5092613;28;20102;-69
2022/08/16 03:15:09;;;;;;;0.88;0.88;;;;;;;20.37;67.30;98760.06;5093105;28;20060;-69
2022/08/16 03:17:40;;;;;;;1.13;1.02;;;;;;;20.44;67.08;98757.00;5092377;28;20052;-69
2022/08/16 03:20:23;;;;;;;1.02;0.85;;;;;;;20.49;67.14;98757.59;5092882;28;20509;-69
2022/08/16 03:23:03;;;;;;;1.20;1.10;;;;;;;20.51;66.81;98757.53;5092508;28;20048;-69
2022/08/16 03:25:32;;;;;;;1.45;1.35;;;;;;;20.51;66.65;98760.13;5104163;28;20040;-69
2022/08/16 03:28:12;;;;;;;1.10;0.77;;;;;;;20.52;66.57;98769.53;5113201;28;20051;-69
2022/08/16 03:30:47;;;;;;;0.95;0.88;;;;;;;20.51;66.50;98767.91;5107005;28;20040;-69
2022/08/16 03:33:17;;;;;;;1.20;1.10;;;;;;;20.58;66.56;98774.41;5092732;28;20036;-69
2022/08/16 03:35:58;;;;;;;1.05;0.75;;;;;;;20.57;66.61;98768.38;5092336;28;20180;-69
2022/08/16 03:38:53;;;;;;;0.95;0.88;;;;;;;20.59;66.52;98770.88;5092674;28;20131;-69
2022/08/16 03:41:25;;;;;;;0.82;0.82;;;;;;;20.57;66.21;98762.34;5094716;28;20113;-69
2022/08/16 03:44:14;;;;;;;0.80;0.80;;;;;;;20.57;66.07;98773.56;5113818;28;20506;-69
2022/08/16 03:47:05;;;;;;;1.08;0.77;;;;;;;20.55;65.94;98779.75;5112188;28;20032;-69
2022/08/16 03:49:39;;;;;;;1.90;0.98;;;;;;;20.51;65.88;98786.03;5094577;28;20106;-69
2022/08/16 03:52:12;;;;;;;1.30;1.10;;;;;;;20.49;65.85;98780.13;5096671;28;20560;-69
2022/08/16 03:54:44;;;;;;;0.80;0.80;;;;;;;20.49;66.11;98785.28;5096381;28;20055;-69
2022/08/16 03:57:25;;;;;;;0.88;0.88;;;;;;;20.46;66.50;98790.66;5096469;28;20043;-69
2022/08/16 04:00:11;;;;;;;0.63;0.63;;;;;;;20.46;66.55;98795.81;5113375;28;20401;-69
2022/08/16 04:03:06;;;;;;;1.83;0.80;;;;;;;20.45;66.49;98800.16;5117023;28;20063;-69
2022/08/16 04:05:44;;;;;;;1.52;1.27;;;;;;;20.48;66.45;98810.38;5102298;28;20135;-69
2022/08/16 04:08:15;;;;;;;0.93;0.93;;;;;;;20.51;66.42;98805.03;5096122;28;20043;-69
2022/08/16 04:10:59;;;;;;;3.55;1.23;;;;;;;20.53;66.48;98808.38;5096389;28;20071;-69
2022/08/16 04:13:30;;;;;;;0.98;0.90;;;;;;;20.52;66.79;98816.22;5096013;28;20036;-69
2022/08/16 04:16:21;;;;;;;1.52;1.38;;;;;;;20.50;66.84;98805.09;5105781;28;20110;-69
2022/08/16 04:19:01;;;;;;;1.13;0.88;;;;;;;20.49;67.13;98811.22;5117594;28;20105;-69
2022/08/16 04:21:35;;;;;;;1.63;1.52;;;;;;;20.46;67.25;98817.41;5115408;28;20051;-69
2022/08/16 04:24:21;;;;;;;0.65;0.65;;;;;;;20.40;67.45;98816.88;5116505;28;20074;-69
2022/08/16 04:26:57;;;;;;;3.10;1.25;;;;;;;20.45;67.93;98825.25;5116482;28;20101;-69
2022/08/16 04:29:27;;;;;;;1.98;0.70;;;;;;;20.51;67.65;98824.94;5116377;28;20096;-69
2022/08/16 04:32:15;;;;;;;0.55;0.55;;;;;;;20.54;67.63;98824.75;5114801;28;20044;-69
2022/08/16 04:34:50;;;;;;;1.58;1.48;;;;;;;20.63;67.31;98829.44;5095559;28;20093;-69
2022/08/16 04:37:21;;;;;;;0.75;0.75;;;;;;;20.71;66.52;98837.63;5095508;28;20044;-69
2022/08/16 04:39:56;;;;;;;0.90;0.77;;;;;;;20.82;66.00;98834.44;5096107;28;20500;-69
2022/08/16 04:42:26;;;;;;;2.95;1.63;;;;;;;20.88;65.67;98840.13;5095742;28;20074;-68
2022/08/16 04:45:03;;;;;;;1.05;0.90;;;;;;;20.92;65.70;98846.84;5096543;28;20048;-69
2022/08/16 04:47:34;;;;;;;1.67;1.20;;;;;;;20.85;65.65;98868.00;5095670;28;20044;-69
2022/08/16 04:50:13;;;;;;;0.80;0.80;;;;;;;20.85;65.78;98861.03;5103865;28;20040;-69
2022/08/16 04:52:56;;;;;;;1.33;0.90;;;;;;;20.90;65.70;98868.59;5116808;28;20048;-69
2022/08/16 04:55:30;;;;;;;1.30;1.20;;;;;;;20.94;65.92;98876.13;5114935;28;20531;-69
2022/08/16 04:58:08;;;;;;;0.73;0.68;;;;;;;21.02;66.25;98871.31;5116951;28;20044;-69
2022/08/16 05:00:59;;;;;;;0.85;0.80;;;;;;;21.22;65.21;98860.69;5115373;28;20051;-69
2022/08/16 05:03:30;;;;;;;1.00;0.90;;;;;;;21.31;65.10;98860.16;5111633;28;20093;-69
2022/08/16 05:06:01;;;;;;;0.90;0.90;;;;;;;21.46;64.64;98862.78;5110741;28;20094;-69
2022/08/16 05:08:33;;;;;;;0.55;0.55;;;;;;;21.55;64.14;98863.09;5111517;28;20059;-69
2022/08/16 05:11:09;;;;;;;1.30;0.82;;;;;;;21.65;63.90;98868.59;5112500;28;20105;-69
2022/08/16 05:13:40;;;;;;;1.08;0.98;;;;;;;21.71;63.49;98858.69;5103826;28;20071;-69
2022/08/16 05:16:19;;;;;;;;;;;;;;;21.81;63.30;98864.19;5095828;28;20071;-70
2022/08/16 05:19:00;;;;;;;2.10;1.63;;;;;;;21.90;63.15;98868.84;5103025;28;19963;-70
2022/08/16 05:21:37;;;;;;;2.08;1.60;;;;;;;21.95;63.47;98866.81;5104391;28;20032;-69
2022/08/16 05:24:10;;;;;;;1.35;1.02;;;;;;;22.08;63.08;98872.94;5106926;28;20065;-70
2022/08/16 05:26:39;;;;;;;;;;;;;;;22.19;63.06;98880.94;5098296;28;20031;-70
2022/08/16 05:29:13;;;;;;;0.90;0.90;;;;;;;22.16;62.71;98878.53;5097222;28;19920;-69
2022/08/16 05:31:57;;;;;;;1.15;1.05;;;;;;;21.88;63.50;98871.53;5098851;28;20075;-69
2022/08/16 05:34:25;;;;;;;0.70;0.70;;;;;;;21.77;63.83;98873.06;5101870;28;20032;-68
2022/08/16 05:36:56;;;;;;;2.65;2.05;;;;;;;21.77;64.14;98867.88;5123256;27;20043;-69
2022/08/16 05:39:34;;;;;;;0.95;0.88;;;;;;;21.70;64.31;98875.19;5099251;28;20040;-69
2022/08/16 05:42:09;;;;;;;2.53;1.02;;;;;;;21.76;64.10;98876.59;5098537;28;20043;-69
2022/08/16 05:44:40;;;;;;;1.08;0.98;;;;;;;21.86;63.94;98882.94;5104794;28;20047;-69
2022/08/16 05:47:11;;;;;;;1.15;1.08;;;;;;;22.06;64.00;98882.59;5099155;28;20122;-69
2022/08/16 05:49:45;;;;;;;1.30;1.13;;;;;;;22.08;63.72;98880.72;5102012;28;20039;-69
2022/08/16 05:52:20;;;;;;;1.00;0.90;;;;;;;21.96;63.84;98878.88;5103797;28;20048;-68
2022/08/16 05:54:55;;;;;;;0.93;0.75;;;;;;;22.10;63.86;98865.88;5110103;28;20075;-68
2022/08/16 05:57:29;;;;;;;0.77;0.75;;;;;;;22.21;63.83;98868.69;5097248;28;20505;-68
2022/08/16 06:00:05;;;;;;;1.30;1.17;;;;;;;22.46;63.46;98863.63;5104698;28;20055;-68
2022/08/16 06:02:40;;;;;;;0.57;0.57;;;;;;;22.62;63.19;98864.41;5101359;28;20047;-68
2022/08/16 06:05:31;;;;;;;2.58;1.65;;;;;;;22.77;62.68;98856.56;5099935;28;20059;-69
2022/08/16 06:08:05;;;;;;;1.73;0.90;;;;;;;22.91;62.29;98851.28;5101852;28;20044;-68
2022/08/16 06:10:43;;;;;;;0.85;0.80;;;;;;;23.08;62.01;98851.06;5099851;28;20521;-68
2022/08/16 06:13:33;;;;;;;0.80;0.80;;;;;;;23.21;61.48;98862.31;5097790;28;20036;-69
2022/08/16 06:16:01;;;;;;;;;;;;;;;23.34;61.26;98863.19;5117486;27;20127;-68
2022/08/16 06:18:30;;;;;;;1.53;1.30;;;;;;;23.50;60.78;98876.91;5099400;28;19920;-69
2022/08/16 06:20:59;;;;;;;0.60;0.60;;;;;;;23.65;60.41;98862.88;5101393;28;20527;-68
2022/08/16 06:23:29;;;;;;;1.35;0.93;;;;;;;23.77;60.39;98869.88;5097016;28;20040;-69
2022/08/16 06:26:04;;;;;;;0.77;0.77;;;;;;;23.77;59.89;98854.22;5097825;28;20032;-70
2022/08/16 06:28:40;;;;;;;1.35;1.25;;;;;;;23.76;59.91;98865.59;5095841;28;20040;-69
2022/08/16 06:31:18;;;;;;;1.77;1.25;;;;;;;23.90;59.70;98868.09;5108787;28;20047;-71
2022/08/16 06:33:53;;;;;;;1.00;0.90;;;;;;;24.06;59.16;98867.03;5108255;28;20497;-69
2022/08/16 06:36:23;;;;;;;1.52;1.40;;;;;;;24.18;58.69;98874.06;5108776;28;20504;-67
2022/08/16 06:39:06;;;;;;;1.40;1.30;;;;;;;24.32;58.74;98880.00;5102706;28;20137;-67
2022/08/16 06:41:53;;;;;;;3.08;1.65;;;;;;;24.50;57.90;98883.06;5104669;28;20043;-66
2022/08/16 06:44:32;;;;;;;0.88;0.88;;;;;;;24.55;57.60;98880.97;5101150;28;20045;-67
2022/08/16 06:47:05;;;;;;;1.08;0.93;;;;;;;24.64;57.68;98882.97;5105853;28;20073;-67
2022/08/16 06:49:36;;;;;;;1.88;1.60;;;;;;;24.72;57.34;98883.22;5098128;28;20044;-67
2022/08/16 06:52:07;;;;;;;1.35;1.08;;;;;;;24.86;56.88;98880.50;5102061;28;20040;-67
2022/08/16 06:54:57;;;;;;;0.70;0.70;;;;;;;25.09;56.67;98876.25;5110353;28;20485;-67
2022/08/16 06:57:26;;;;;;;2.05;1.10;;;;;;;25.20;55.68;98879.72;5099719;28;20052;-67
2022/08/16 06:59:56;;;;;;;2.03;1.00;;;;;;;25.30;55.13;98885.97;5093593;28;20143;-67
2022/08/16 07:02:34;;;;;;;0.77;0.73;;;;;;;25.49;55.00;98879.38;5096941;28;20061;-67
2022/08/16 07:05:06;;;;;;;1.85;1.70;;;;;;;25.59;54.69;98885.59;5093875;28;20036;-69
2022/08/16 07:07:52;;;;;;;1.55;1.35;;;;;;;25.72;53.67;98875.91;5100522;28;20047;-68
2022/08/16 07:10:26;;;;;;;1.33;1.23;;;;;;;25.77;53.49;98877.22;5098344;28;20032;-72
2022/08/16 07:12:55;;;;;;;0.88;0.70;;;;;;;25.94;53.20;98881.16;5099049;28;20093;-68
2022/08/16 07:15:34;;;;;;;1.33;1.23;;;;;;;26.08;52.61;98878.34;5096178;28;20093;-67
2022/08/16 07:18:04;;;;;;;1.02;0.93;;;;;;;26.17;52.58;98877.66;5097162;28;20433;-67
2022/08/16 07:20:33;;;;;;;0.82;0.82;;;;;;;26.27;52.42;98873.38;5096468;28;20032;-67
2022/08/16 07:23:17;;;;;;;1.88;1.45;;;;;;;26.43;52.50;98871.22;5081316;28;20036;-67
2022/08/16 07:25:54;;;;;;;2.70;1.65;;;;;;;26.55;52.00;98867.66;5102091;28;20043;-67
2022/08/16 07:28:26;;;;;;;0.75;0.75;;;;;;;26.61;51.81;98867.16;5095622;28;20044;-68
2022/08/16 07:30:58;;;;;;;1.33;1.23;;;;;;;26.59;51.69;98857.75;5096709;28;20032;-68
2022/08/16 07:33:36;;;;;;;2.63;1.75;;;;;;;26.72;51.32;98857.63;5109072;28;20050;-67
2022/08/16 07:36:27;;;;;;;1.48;1.27;;;;;;;26.78;50.85;98855.38;5101928;28;20036;-68
2022/08/16 07:38:59;;;;;;;0.85;0.82;;;;;;;26.91;50.79;98857.84;5106737;28;20083;-67
2022/08/16 07:41:35;;;;;;;1.30;0.90;;;;;;;26.99;49.98;98860.69;5096559;28;20040;-67
2022/08/16 07:44:04;;;;;;;0.80;0.80;;;;;;;27.12;49.61;98862.16;5100271;28;20093;-71
2022/08/16 07:46:45;;;;;;;1.73;1.30;;;;;;;27.16;49.25;98868.00;5096600;28;20112;-68
2022/08/16 07:49:18;;;;;;;0.93;0.82;;;;;;;27.23;49.38;98858.69;5101802;28;20559;-68
2022/08/16 07:51:47;;;;;;;0.80;0.80;;;;;;;27.36;49.26;98864.56;5097494;28;20550;-67
2022/08/16 07:54:22;;;;;;;0.75;0.70;;;;;;;27.37;49.21;98860.16;5115319;28;20442;-67
2022/08/16 07:57:11;;;;;;;1.08;0.98;;;;;;;27.42;48.65;98863.28;5099299;28;20570;-68
2022/08/16 07:59:43;;;;;;;1.10;0.90;;;;;;;27.51;48.46;98862.50;5101941;28;20085;-71
2022/08/16 08:02:17;;;;;;;1.38;1.02;;;;;;;27.64;48.41;98863.97;5102018;28;20485;-67
2022/08/16 08:04:56;;;;;;;1.45;1.10;;;;;;;27.80;47.89;98864.38;5111677;28;20048;-68
2022/08/16 08:07:28;;;;;;;0.82;0.75;;;;;;;27.83;46.78;98864.09;5109147;28;20039;-67
2022/08/16 08:10:02;;;;;;;1.80;0.90;;;;;;;27.91;46.79;98859.03;5113646;28;20047;-67
2022/08/16 08:12:35;;;;;;;0.90;0.90;;;;;;;27.97;46.48;98854.22;5114181;28;20503;-67
2022/08/16 08:15:09;;;;;;;1.20;1.10;;;;;;;28.10;46.64;98844.38;5113508;28;20040;-67
2022/08/16 08:17:41;;;;;;;4.15;1.73;;;;;;;28.19;46.16;98852.31;5113267;28;20497;-67
2022/08/16 08:20:21;;;;;;;0.73;0.73;;;;;;;28.23;45.84;98845.81;5099927;28;20051;-68
2022/08/16 08:22:58;;;;;;;0.80;0.80;;;;;;;28.27;46.47;98851.63;5100262;28;20050;-68
2022/08/16 08:25:36;;;;;;;0.82;0.82;;;;;;;28.33;46.41;98856.34;5094847;28;20047;-69
2022/08/16 08:28:26;;;;;;;0.80;0.80;;;;;;;28.32;46.73;98852.88;5096739;28;20047;-67
2022/08/16 08:31:02;;;;;;;0.68;0.55;;;;;;;28.48;46.72;98852.41;5097507;28;20055;-68
2022/08/16 08:33:36;;;;;;;0.85;0.85;;;;;;;28.68;47.08;98856.75;5100884;28;20036;-70
2022/08/16 08:36:14;;;;;;;1.05;0.93;;;;;;;28.80;46.43;98855.69;5095648;28;20094;-68
2022/08/16 08:38:51;;;;;;;;;;;;;;;28.88;46.23;98853.22;5110767;28;21596;-68
2022/08/16 08:41:20;;;;;;;1.40;1.27;;;;;;;28.98;46.15;98851.44;5096874;28;19920;-67
2022/08/16 08:44:02;;;;;;;2.10;1.30;;;;;;;29.12;45.23;98851.00;5095434;28;20406;-68
2022/08/16 08:46:55;;;;;;;1.55;1.45;;;;;;;29.11;45.36;98859.03;5099011;28;20081;-69
2022/08/16 08:49:31;;;;;;;0.73;0.73;;;;;;;29.32;45.10;98858.94;5096196;28;20490;-68
2022/08/16 08:52:20;;;;;;;0.85;0.85;;;;;;;29.40;44.86;98856.41;5095577;28;20379;-68
2022/08/16 08:55:09;;;;;;;1.27;0.93;;;;;;;29.74;45.55;98860.25;5096809;28;20110;-67
2022/08/16 08:57:44;;;;;;;1.83;1.20;;;;;;;29.96;45.20;98867.84;5096707;28;20478;-67
2022/08/16 09:00:23;;;;;;;1.50;1.40;;;;;;;29.95;44.60;98862.72;5096240;28;20052;-67
2022/08/16 09:03:01;;;;;;;3.28;1.58;;;;;;;29.87;44.39;98862.63;5096179;28;20040;-67
2022/08/16 09:05:35;;;;;;;1.98;1.35;;;;;;;29.71;44.88;98852.63;5096560;28;20199;-67
2022/08/16 09:08:08;;;;;;;1.58;1.42;;;;;;;29.63;44.51;98853.38;5096107;28;20060;-67
2022/08/16 09:10:46;;;;;;;1.05;0.95;;;;;;;29.72;44.29;98849.88;5096102;28;20078;-68
2022/08/16 09:13:31;;;;;;;7.28;2.15;;;;;;;29.90;44.11;98846.53;5095124;28;20072;-67
2022/08/16 09:16:03;;;;;;;0.95;0.95;;;;;;;29.89;44.14;98845.72;5096056;28;20461;-67
2022/08/16 09:18:33;;;;;;;1.05;0.98;;;;;;;29.96;44.04;98846.78;5094609;28;20040;-68
2022/08/16 09:21:07;;;;;;;0.82;0.82;;;;;;;30.21;44.12;98838.22;5095895;28;20036;-68
2022/08/16 09:23:38;;;;;;;1.35;0.95;;;;;;;30.61;44.26;98837.09;5096546;28;20555;-67
2022/08/16 09:26:14;;;;;;;1.35;1.25;;;;;;;30.83;43.79;98832.25;5096147;28;20056;-67
2022/08/16 09:29:03;;;;;;;1.52;0.90;;;;;;;31.01;43.54;98825.19;5094596;28;20039;-68
2022/08/16 09:31:46;;;;;;;0.75;0.75;;;;;;;31.09;42.64;98827.06;5096112;28;20127;-67
2022/08/16 09:34:21;;;;;;;2.20;1.15;;;;;;;31.22;42.41;98832.78;5095717;28;20068;-68
2022/08/16 09:36:50;;;;;;;;;;;;;;;31.32;41.96;98828.25;5096026;28;20052;-68
2022/08/16 09:39:22;;;;;;;0.80;0.80;;;;;;;31.45;41.73;98823.47;5095834;28;19926;-68
2022/08/16 09:41:51;;;;;;;1.27;0.80;;;;;;;31.54;41.15;98816.41;5095460;28;20123;-68
2022/08/16 09:44:22;;;;;;;1.42;1.33;;;;;;;31.59;40.96;98820.25;5095474;28;20070;-68
2022/08/16 09:47:12;;;;;;;0.93;0.80;;;;;;;31.69;40.92;98815.72;5095632;28;20139;-67
2022/08/16 09:49:41;;;;;;;1.20;1.10;;;;;;;31.89;40.95;98811.00;5095393;28;20118;-67
2022/08/16 09:52:19;;;;;;;1.75;1.35;;;;;;;32.09;40.52;98812.47;5095844;28;20143;-67
2022/08/16 09:54:49;;;;;;;1.33;1.00;;;;;;;32.07;39.95;98818.91;5095561;28;20469;-67
2022/08/16 09:57:18;;;;;;;0.50;0.50;;;;;;;32.00;40.29;98812.59;5095590;28;20040;-67
2022/08/16 09:59:50;;;;;;;0.60;0.60;;;;;;;32.20;40.57;98814.03;5095080;28;20123;-68
2022/08/16 10:02:26;;;;;;;2.65;0.90;;;;;;;32.48;40.33;98812.78;5095448;28;20052;-68
2022/08/16 10:04:57;;;;;;;1.75;1.08;;;;;;;32.49;39.29;98811.78;5095037;28;20051;-67
2022/08/16 10:07:29;;;;;;;0.70;0.70;;;;;;;32.32;39.11;98804.81;5095056;28;20081;-67
2022/08/16 10:10:13;;;;;;;0.70;0.70;;;;;;;32.27;38.75;98807.13;5095042;28;20127;-67
2022/08/16 10:15:40;;;;;;;1.90;1.10;;;;;;;31.93;38.78;98808.91;5094987;28;20082;-67
2022/08/16 10:18:13;;;;;;;1.75;1.00;;;;;;;32.13;39.76;98807.72;5094521;28;20072;-68
2022/08/16 10:21:02;;;;;;;1.00;0.90;;;;;;;32.50;39.83;98800.28;5094694;28;20036;-68
2022/08/16 10:23:30;;;;;;;0.50;0.50;;;;;;;32.64;38.91;98806.75;5094736;28;20040;-68
2022/08/16 10:25:59;;;;;;;0.60;0.60;;;;;;;32.72;38.66;98802.31;5095226;28;20048;-68
2022/08/16 10:28:48;;;;;;;1.70;0.95;;;;;;;32.72;38.12;98804.97;5094652;28;20123;-68
2022/08/16 10:31:18;;;;;;;0.95;0.95;;;;;;;32.78;37.88;98801.66;5094456;28;20048;-68
2022/08/16 10:34:08;;;;;;;1.10;1.00;;;;;;;32.72;37.37;98804.97;5094704;28;20093;-68
2022/08/16 10:36:57;;;;;;;3.90;1.45;;;;;;;32.88;37.65;98799.69;5094744;28;20046;-68
2022/08/16 10:39:26;;;;;;;1.95;1.40;;;;;;;33.04;38.27;98805.00;5094722;28;20067;-68
2022/08/16 10:42:10;;;;;;;0.85;0.82;;;;;;;33.23;37.84;98800.41;5094391;28;20048;-68
2022/08/16 10:44:41;;;;;;;7.20;0.88;;;;;;;33.28;37.14;98800.72;5094713;28;20482;-66
2022/08/16 10:47:22;;;;;;;1.35;1.25;;;;;;;33.38;37.37;98801.38;5094576;28;20044;-68
2022/08/16 10:49:52;;;;;;;0.90;0.80;;;;;;;33.43;37.43;98794.59;5094351;28;20036;-68
2022/08/16 10:52:21;;;;;;;1.88;1.58;;;;;;;33.54;37.27;98804.03;5094143;28;20090;-68
2022/08/16 10:54:52;;;;;;;2.35;1.05;;;;;;;33.60;36.91;98800.72;5094122;28;20052;-68
2022/08/16 10:57:41;;;;;;;0.93;0.88;;;;;;;33.60;36.48;98795.41;5094542;28;20063;-68
2022/08/16 11:00:13;;;;;;;;;;;;;;;33.72;37.14;98796.72;5093970;28;20036;-68
2022/08/16 11:02:50;;;;;;;0.88;0.88;;;;;;;33.80;36.32;98796.69;5094092;28;19920;-68
2022/08/16 11:05:30;;;;;;;4.03;1.05;;;;;;;33.81;36.16;98779.81;5093948;28;20079;-68
2022/08/16 11:08:20;;;;;;;1.20;0.82;;;;;;;33.87;36.16;98781.78;5094065;28;20036;-69
2022/08/16 11:11:05;;;;;;;1.00;0.80;;;;;;;33.78;35.66;98782.81;5094490;28;20552;-69
2022/08/16 11:13:48;;;;;;;0.73;0.70;;;;;;;33.66;35.68;98784.16;5094161;28;20078;-68
2022/08/16 11:16:28;;;;;;;1.23;1.13;;;;;;;33.61;36.34;98776.72;5094203;28;20054;-68
2022/08/16 11:19:17;;;;;;;0.93;0.82;;;;;;;33.88;36.22;98783.44;5093619;28;20052;-68
2022/08/16 11:21:49;;;;;;;0.95;0.85;;;;;;;33.73;36.36;98779.84;5093763;28;20048;-68
2022/08/16 11:24:39;;;;;;;1.27;0.98;;;;;;;33.41;36.42;98779.88;5093593;28;20040;-68
2022/08/16 11:27:14;;;;;;;0.77;0.77;;;;;;;33.12;37.10;98780.38;5094029;28;20101;-67
2022/08/16 11:29:49;;;;;;;0.60;0.60;;;;;;;32.86;37.73;98780.50;5093645;28;20052;-67
2022/08/16 11:32:20;;;;;;;0.57;0.57;;;;;;;32.60;37.66;98779.81;5093723;28;20056;-67
2022/08/16 11:34:57;;;;;;;1.15;1.02;;;;;;;32.39;38.00;98782.84;5093891;28;20131;-68
2022/08/16 11:37:48;;;;;;;0.77;0.75;;;;;;;32.25;38.60;98780.03;5093637;28;20051;-67
2022/08/16 11:40:40;;;;;;;1.92;1.10;;;;;;;32.05;39.56;98789.19;5093895;28;20477;-67
2022/08/16 11:43:12;;;;;;;1.30;1.20;;;;;;;31.98;39.35;98788.16;5093773;28;20398;-67
2022/08/16 11:45:45;;;;;;;0.80;0.77;;;;;;;31.98;39.90;98782.88;5093865;28;20122;-67
2022/08/16 11:48:23;;;;;;;1.20;0.82;;;;;;;31.98;40.03;98788.16;5093492;28;20040;-67
2022/08/16 11:50:52;;;;;;;1.40;1.30;;;;;;;31.90;40.71;98790.72;5093584;28;20044;-67
2022/08/16 11:53:23;;;;;;;;;;;;;;;31.80;40.34;98786.38;5093838;28;20032;-67
2022/08/16 11:55:53;;;;;;;0.80;0.80;;;;;;;31.73;40.03;98785.38;5093757;28;20007;-68
2022/08/16 11:58:24;;;;;;;1.75;1.30;;;;;;;31.75;39.00;98783.38;5093744;28;20052;-68
2022/08/16 12:00:58;;;;;;;0.95;0.93;;;;;;;32.13;38.89;98784.75;5093376;28;20490;-68
2022/08/16 12:03:30;;;;;;;1.35;1.13;;;;;;;32.42;38.68;98782.53;5094245;28;20535;-68
2022/08/16 12:06:09;;;;;;;0.70;0.70;;;;;;;32.47;38.18;98781.25;5093656;28;20055;-68
2022/08/16 12:08:41;;;;;;;0.68;0.68;;;;;;;32.75;37.76;98772.91;5093338;28;20044;-68
2022/08/16 12:11:12;;;;;;;0.82;0.82;;;;;;;33.12;37.15;98775.09;5095154;28;20135;-68
2022/08/16 12:13:41;;;;;;;2.72;1.08;;;;;;;33.40;36.94;98775.59;5097242;28;20052;-68
2022/08/16 12:16:11;;;;;;;0.98;0.88;;;;;;;33.46;36.22;98774.91;5097480;28;20493;-68
2022/08/16 12:18:46;;;;;;;1.52;1.33;;;;;;;33.71;34.79;98779.19;5097143;28;20084;-69